This is the latest recevied weather packets stored in our database for station/object KO6HRZ. If no packets are shown the sender has not sent any weather packets the latest 10 day(s).
| Time | Temp. | Humidity | Pressure | Rain* | Wind** | Luminosity | Snow |
|---|---|---|---|---|---|---|---|
| 1778013632 | 17.78° C | 78% | 1016.1 hPa | 0 mm | - | 143 W/m² | - |
| 1778013032 | 17.78° C | 79% | 1016.2 hPa | 0 mm | - | 193 W/m² | - |
| 1778012430 | 17.78° C | 78% | 1016.2 hPa | 0 mm | - | 221 W/m² | - |
| 1778011825 | 18.33° C | 77% | 1016.2 hPa | 0 mm | - | 253 W/m² | - |
| 1778011219 | 18.33° C | 76% | 1016.3 hPa | 0 mm | - | 245 W/m² | - |
| 1778010618 | 18.33° C | 76% | 1016.5 hPa | 0 mm | - | 205 W/m² | - |
| 1778010016 | 18.89° C | 72% | 1016.3 hPa | 0 mm | - | 265 W/m² | - |
| 1778009411 | 18.89° C | 71% | 1016.5 hPa | 0 mm | - | 236 W/m² | - |
| 1778008806 | 18.89° C | 69% | 1016.2 hPa | 0 mm | - | 290 W/m² | - |
| 1778008202 | 18.89° C | 69% | 1016.2 hPa | 0 mm | - | 318 W/m² | - |
| 1778007598 | 18.33° C | 71% | 1016.5 hPa | 0 mm | - | 347 W/m² | - |
| 1778006998 | 20° C | 68% | 1016 hPa | 0 mm | - | 961 W/m² | - |
| 1778006397 | 18.89° C | 72% | 1016.2 hPa | 0 mm | - | 979 W/m² | - |
| 1778005796 | 18.89° C | 71% | 1016.2 hPa | 0 mm | - | 408 W/m² | - |
| 1778005196 | 18.33° C | 74% | 1016.2 hPa | 0 mm | - | 410 W/m² | - |
| 1778004596 | 17.78° C | 74% | 1016.1 hPa | 0 mm | - | 497 W/m² | - |
| 1778003995 | 16.11° C | 80% | 1016 hPa | 0 mm | - | 304 W/m² | - |
| 1778003394 | 16.11° C | 82% | 1016.2 hPa | 0 mm | - | 335 W/m² | - |
| 1778002793 | 15.56° C | 84% | 1015.9 hPa | 0 mm | - | 267 W/m² | - |
| 1778002192 | 15.56° C | 86% | 1016 hPa | 0 mm | - | 227 W/m² | - |
| 1778001590 | 15° C | 87% | 1016 hPa | 0 mm | - | 251 W/m² | - |
| 1778000990 | 15° C | 89% | 1016.1 hPa | 0 mm | - | 157 W/m² | - |
| 1778000388 | 14.44° C | 89% | 1015.9 hPa | 0 mm | - | 133 W/m² | - |
| 1777999785 | 14.44° C | 89% | 1016 hPa | 0 mm | - | 116 W/m² | - |
| 1777999186 | 15° C | 89% | 1015.8 hPa | 0 mm | - | 174 W/m² | - |
* Rain latest hour (hover to see other rain measurements)
** Current wind speed in m/s (hover to see current wind gust speed)